Time;durP1;ratioP1;P1;durP2;ratioP2;P2;SDS_P1;SDS_P2;PMS_P1;PMS_P2;Temp;Humidity;BMP_temperature;BMP_pressure;BME280_temperature;BME280_humidity;BME280_pressure;Samples;Min_cycle;Max_cycle;Signal;HPM_P1;HPM_P2
2021/10/02 00:31:51;;;;;;;2.63;2.03;;;13.10;98.30;;;;;;5077062;28;20494;-85
2021/10/02 00:44:40;;;;;;;3.50;2.22;;;13.10;98.40;;;;;;5072572;28;20116;-84
2021/10/02 00:47:06;;;;;;;2.20;1.60;;;13.10;98.50;;;;;;5074056;28;20941;-84
2021/10/02 00:49:34;;;;;;;3.45;1.85;;;13.10;98.70;;;;;;5061987;28;20035;-84
2021/10/02 00:51:59;;;;;;;5.60;1.70;;;13.00;98.30;;;;;;5053451;28;20158;-85
2021/10/02 00:54:25;;;;;;;2.75;1.40;;;13.00;98.60;;;;;;5055393;28;20111;-84
2021/10/02 00:56:50;;;;;;;2.40;2.00;;;13.10;98.50;;;;;;5054341;28;20028;-84
2021/10/02 00:59:16;;;;;;;2.83;1.77;;;13.10;99.00;;;;;;5067351;28;20502;-82
2021/10/02 01:01:44;;;;;;;1.75;1.65;;;13.10;98.50;;;;;;5069125;28;20693;-84
2021/10/02 01:04:23;;;;;;;3.88;1.83;;;13.10;98.50;;;;;;5067642;28;20322;-84
2021/10/02 01:07:22;;;;;;;3.83;1.98;;;13.10;98.70;;;;;;5086082;28;20069;-84
2021/10/02 01:10:17;;;;;;;2.20;1.45;;;13.20;98.70;;;;;;5072445;28;20118;-84
2021/10/02 01:13:07;;;;;;;2.13;1.90;;;13.10;98.50;;;;;;5068699;28;20055;-84
2021/10/02 01:15:50;;;;;;;2.70;2.15;;;13.20;98.70;;;;;;5101896;28;20043;-84
2021/10/02 01:18:19;;;;;;;3.10;2.10;;;13.20;99.20;;;;;;5078165;28;20036;-84
2021/10/02 01:21:29;;;;;;;3.25;2.65;;;13.20;98.70;;;;;;5070891;28;20110;-83
2021/10/02 01:24:03;;;;;;;3.90;2.47;;;13.20;98.60;;;;;;5074208;28;20487;-85
2021/10/02 01:26:43;;;;;;;4.35;2.70;;;13.10;98.90;;;;;;5083327;28;20091;-84
2021/10/02 01:29:09;;;;;;;2.58;1.90;;;13.10;98.80;;;;;;5078222;28;20420;-84
2021/10/02 01:31:46;;;;;;;2.83;2.17;;;13.10;99.00;;;;;;5067702;28;20024;-84
2021/10/02 01:34:23;;;;;;;4.60;2.13;;;13.10;99.10;;;;;;5058595;28;20379;-84
2021/10/02 01:47:50;;;;;;;5.95;2.50;;;13.10;99.50;;;;;;5077864;28;20499;-85
2021/10/02 01:50:15;;;;;;;3.85;2.28;;;13.10;99.90;;;;;;5057194;28;20027;-84
2021/10/02 01:52:42;;;;;;;3.88;2.20;;;13.10;99.20;;;;;;5058496;28;20437;-84
2021/10/02 01:55:09;;;;;;;5.47;2.97;;;13.10;99.40;;;;;;5056121;28;20057;-85
2021/10/02 01:57:38;;;;;;;3.47;2.25;;;13.20;99.60;;;;;;5071315;28;20119;-85
2021/10/02 02:00:05;;;;;;;3.53;2.20;;;13.10;99.60;;;;;;5057774;28;20040;-84
2021/10/02 02:02:31;;;;;;;2.72;1.52;;;13.10;99.50;;;;;;5055192;28;20028;-83
2021/10/02 02:04:57;;;;;;;4.40;2.08;;;13.20;99.10;;;;;;5072208;28;20098;-84
2021/10/02 02:07:24;;;;;;;2.50;1.65;;;13.20;99.10;;;;;;5051793;28;20115;-84
2021/10/02 02:09:49;;;;;;;3.50;1.80;;;13.20;99.00;;;;;;5055175;28;20506;-83
2021/10/02 02:12:16;;;;;;;2.58;2.38;;;13.20;99.00;;;;;;5058024;28;20039;-85
2021/10/02 02:14:42;;;;;;;3.95;2.30;;;13.20;99.10;;;;;;5054475;28;20480;-83
2021/10/02 02:17:07;;;;;;;5.07;2.53;;;13.20;99.10;;;;;;5055519;28;20032;-83
2021/10/02 02:19:33;;;;;;;2.10;1.85;;;13.10;99.30;;;;;;5055082;28;20039;-82
2021/10/02 02:21:59;;;;;;;2.28;1.70;;;13.10;99.00;;;;;;5073876;28;20085;-84
2021/10/02 02:24:26;;;;;;;2.15;1.90;;;13.20;99.10;;;;;;5055873;28;20034;-83
2021/10/02 02:26:51;;;;;;;4.22;2.33;;;13.20;99.20;;;;;;5055473;28;20097;-83
2021/10/02 02:29:17;;;;;;;3.67;2.55;;;13.20;99.20;;;;;;5069626;28;20351;-83
2021/10/02 02:31:42;;;;;;;2.70;2.08;;;13.20;99.00;;;;;;5056896;28;20502;-84
2021/10/02 02:34:08;;;;;;;2.80;2.10;;;13.20;99.40;;;;;;5053394;28;20036;-83
2021/10/02 02:36:33;;;;;;;2.35;1.90;;;13.10;99.10;;;;;;5048548;28;20118;-83
2021/10/02 02:38:59;;;;;;;3.72;3.00;;;13.10;99.50;;;;;;5072156;28;20046;-83
2021/10/02 02:41:24;;;;;;;2.38;2.00;;;13.10;99.50;;;;;;5052243;28;20508;-83
2021/10/02 02:43:50;;;;;;;3.72;2.65;;;13.10;98.80;;;;;;5055446;28;20027;-82
2021/10/02 02:46:22;;;;;;;4.30;1.67;;;13.20;99.30;;;;;;5053453;28;20035;-82
2021/10/02 02:48:52;;;;;;;2.17;1.98;;;13.20;98.80;;;;;;5070662;28;20036;-83
2021/10/02 02:51:21;;;;;;;2.95;1.67;;;13.20;98.80;;;;;;5084664;28;20051;-83
2021/10/02 02:53:59;;;;;;;3.78;2.53;;;13.30;99.10;;;;;;5052885;28;20062;-82
2021/10/02 02:56:46;;;;;;;2.10;1.90;;;13.30;99.20;;;;;;5054880;28;20491;-87
2021/10/02 02:59:20;;;;;;;3.63;2.90;;;13.20;99.20;;;;;;5057090;28;20550;-86
2021/10/02 03:01:46;;;;;;;3.75;2.05;;;13.20;99.50;;;;;;5056192;28;20213;-87
2021/10/02 03:04:16;;;;;;;2.40;1.70;;;13.10;99.30;;;;;;5067448;28;20434;-85
2021/10/02 03:06:43;;;;;;;2.00;1.75;;;13.20;99.50;;;;;;5059277;28;20115;-85
2021/10/02 03:09:08;;;;;;;4.10;2.67;;;13.20;99.30;;;;;;5055363;28;20089;-86
2021/10/02 03:11:34;;;;;;;3.20;2.50;;;13.30;99.60;;;;;;5070874;28;20047;-87
2021/10/02 03:13:59;;;;;;;3.03;1.92;;;13.20;99.90;;;;;;5057447;28;20031;-86
2021/10/02 03:16:26;;;;;;;4.18;2.53;;;13.20;99.70;;;;;;5055594;28;20032;-86
2021/10/02 03:19:01;;;;;;;2.10;1.90;;;13.20;99.80;;;;;;5071386;28;20028;-86
2021/10/02 03:21:27;;;;;;;5.00;2.53;;;13.30;99.40;;;;;;5051320;28;20054;-87
2021/10/02 03:23:52;;;;;;;3.08;2.35;;;13.20;99.70;;;;;;5053821;28;20040;-87
2021/10/02 03:26:18;;;;;;;2.83;2.63;;;13.20;99.60;;;;;;5054832;28;20107;-86
2021/10/02 03:28:44;;;;;;;4.10;2.53;;;13.20;99.60;;;;;;5056157;28;20035;-86
2021/10/02 03:31:10;;;;;;;1.67;1.58;;;13.20;99.60;;;;;;5053285;28;20089;-86
2021/10/02 03:33:36;;;;;;;5.10;2.20;;;13.30;99.60;;;;;;5073210;28;20038;-86
2021/10/02 03:36:01;;;;;;;2.15;2.05;;;13.30;99.60;;;;;;5050243;28;20059;-86
2021/10/02 03:38:27;;;;;;;2.47;2.20;;;13.20;99.60;;;;;;5054523;28;20066;-86
2021/10/02 03:40:57;;;;;;;5.78;2.70;;;13.30;99.70;;;;;;5063563;28;20085;-86
2021/10/02 03:43:29;;;;;;;5.43;3.00;;;13.30;99.90;;;;;;5055156;28;20036;-86
2021/10/02 03:45:55;;;;;;;3.10;2.80;;;13.20;99.70;;;;;;5055702;28;20046;-86
2021/10/02 03:48:20;;;;;;;3.00;2.38;;;13.20;99.90;;;;;;5057906;28;20483;-86
2021/10/02 03:50:46;;;;;;;2.92;2.58;;;13.20;99.90;;;;;;5056412;28;20502;-87
2021/10/02 03:53:11;;;;;;;4.43;2.20;;;13.20;99.90;;;;;;5088016;28;20387;-86
2021/10/02 03:55:37;;;;;;;2.72;2.53;;;13.20;99.90;;;;;;5068651;28;20024;-87
2021/10/02 03:58:02;;;;;;;5.18;2.53;;;13.20;99.70;;;;;;5067863;28;20051;-85
2021/10/02 04:00:28;;;;;;;3.30;2.22;;;13.20;99.50;;;;;;5053675;28;20024;-86
2021/10/02 04:02:54;;;;;;;2.05;1.73;;;13.20;99.70;;;;;;5053159;28;20028;-87
2021/10/02 04:05:19;;;;;;;2.47;2.25;;;13.10;99.50;;;;;;5059073;28;20161;-86
2021/10/02 04:07:45;;;;;;;3.38;2.35;;;13.10;99.80;;;;;;5054816;28;20034;-86
2021/10/02 04:10:10;;;;;;;3.53;2.65;;;13.20;99.60;;;;;;5064982;28;20020;-87
2021/10/02 04:12:36;;;;;;;3.35;3.05;;;13.20;99.70;;;;;;5058495;28;20031;-87
2021/10/02 04:15:02;;;;;;;3.40;3.03;;;13.10;99.90;;;;;;5059484;28;20115;-86
2021/10/02 04:17:27;;;;;;;2.55;2.25;;;13.10;99.60;;;;;;5059588;28;20119;-87
2021/10/02 04:19:53;;;;;;;6.25;3.05;;;13.20;99.80;;;;;;5072967;28;20514;-87
2021/10/02 04:22:19;;;;;;;3.08;2.00;;;13.10;99.50;;;;;;5061129;28;20046;-86
2021/10/02 04:24:44;;;;;;;2.63;2.33;;;13.20;99.50;;;;;;5072000;28;20032;-86
2021/10/02 04:27:10;;;;;;;2.55;1.98;;;13.10;99.50;;;;;;5059402;28;20445;-87
2021/10/02 04:29:36;;;;;;;4.55;2.03;;;13.20;99.50;;;;;;5059658;28;20040;-86
2021/10/02 04:32:01;;;;;;;5.60;4.10;;;13.20;99.40;;;;;;5090124;28;20035;-85
2021/10/02 04:34:27;;;;;;;5.30;2.88;;;13.20;99.80;;;;;;5057967;28;20476;-86
2021/10/02 04:36:52;;;;;;;4.97;3.30;;;13.30;99.60;;;;;;5055398;28;20558;-84
2021/10/02 04:39:18;;;;;;;2.90;1.98;;;13.20;99.70;;;;;;5059153;28;20499;-85
2021/10/02 04:41:43;;;;;;;4.00;3.03;;;13.20;99.50;;;;;;5071456;28;20051;-85
2021/10/02 04:44:09;;;;;;;5.28;2.97;;;13.20;99.90;;;;;;5059962;28;20059;-84
2021/10/02 04:46:36;;;;;;;3.55;3.20;;;13.10;99.60;;;;;;4369537;28;9999863;-85
2021/10/02 04:49:01;;;;;;;5.53;3.90;;;13.10;99.90;;;;;;5056913;28;20035;-86
2021/10/02 04:51:27;;;;;;;4.85;3.95;;;13.10;99.90;;;;;;5059005;28;20057;-85
2021/10/02 04:53:52;;;;;;;5.15;3.20;;;13.20;99.90;;;;;;5059389;28;20040;-84
2021/10/02 04:56:20;;;;;;;5.97;4.05;;;13.20;99.50;;;;;;5056918;28;20024;-85
2021/10/02 04:58:46;;;;;;;5.60;3.00;;;13.30;99.60;;;;;;5056324;28;20115;-85
2021/10/02 05:01:12;;;;;;;3.97;2.85;;;13.20;99.80;;;;;;5060125;28;20094;-85
2021/10/02 05:03:37;;;;;;;3.08;2.47;;;13.20;99.90;;;;;;5072845;28;20035;-85
2021/10/02 05:06:04;;;;;;;3.78;2.53;;;13.20;99.80;;;;;;5072035;28;20032;-85
2021/10/02 05:08:30;;;;;;;3.78;1.90;;;13.20;99.70;;;;;;5057284;28;20030;-84
2021/10/02 05:10:56;;;;;;;3.38;2.80;;;13.20;99.50;;;;;;5071741;28;20423;-85
2021/10/02 05:13:22;;;;;;;3.20;2.40;;;13.20;99.50;;;;;;5060923;28;20055;-85
2021/10/02 05:15:47;;;;;;;4.75;3.00;;;13.20;99.70;;;;;;5072636;28;20067;-85
2021/10/02 05:18:13;;;;;;;8.68;3.45;;;13.10;99.50;;;;;;5068879;28;20091;-85
2021/10/02 05:20:38;;;;;;;4.80;2.92;;;13.20;99.90;;;;;;5068327;28;20036;-85
2021/10/02 05:23:04;;;;;;;3.95;2.42;;;13.10;99.70;;;;;;5056819;28;20036;-85
2021/10/02 05:25:30;;;;;;;3.92;3.53;;;13.10;99.90;;;;;;5057182;28;20020;-85
2021/10/02 05:27:55;;;;;;;3.00;2.70;;;13.10;99.70;;;;;;5087241;28;20058;-85
2021/10/02 05:30:21;;;;;;;4.22;2.88;;;13.10;99.90;;;;;;5070300;28;20030;-85
2021/10/02 05:32:48;;;;;;;9.50;3.10;;;13.10;99.90;;;;;;5041741;28;20510;-85
2021/10/02 05:35:13;;;;;;;4.40;3.20;;;13.10;99.90;;;;;;5074369;28;20059;-85
2021/10/02 05:37:39;;;;;;;2.85;2.50;;;13.10;99.90;;;;;;5061713;28;20093;-85
2021/10/02 05:40:05;;;;;;;3.50;3.17;;;13.10;99.90;;;;;;5058230;28;20089;-85
2021/10/02 05:42:30;;;;;;;3.70;2.90;;;13.10;99.90;;;;;;5071908;28;20039;-85
2021/10/02 05:44:56;;;;;;;4.45;3.05;;;13.10;99.90;;;;;;5056989;28;20480;-86
2021/10/02 05:47:22;;;;;;;3.22;2.65;;;13.00;99.90;;;;;;5051407;28;20047;-86
2021/10/02 05:49:47;;;;;;;4.00;3.00;;;13.10;99.90;;;;;;5057160;28;20031;-86
2021/10/02 05:52:13;;;;;;;4.68;3.50;;;13.20;99.90;;;;;;5034792;28;20106;-85
2021/10/02 05:54:39;;;;;;;9.10;3.08;;;13.10;99.90;;;;;;5040733;28;20024;-87
2021/10/02 05:57:05;;;;;;;2.28;2.08;;;13.00;99.90;;;;;;5014266;28;20061;-86
2021/10/02 05:59:31;;;;;;;3.45;2.42;;;13.00;99.90;;;;;;5025090;28;20030;-87
2021/10/02 06:02:00;;;;;;;2.85;2.15;;;13.10;99.90;;;;;;5062217;28;20418;-86
2021/10/02 06:04:26;;;;;;;4.13;2.47;;;13.10;99.90;;;;;;5072840;28;20061;-87
2021/10/02 06:06:51;;;;;;;6.45;3.70;;;13.10;99.90;;;;;;5058374;28;20035;-87
2021/10/02 06:09:17;;;;;;;5.13;3.13;;;13.00;99.90;;;;;;5074147;28;20028;-86
2021/10/02 06:11:42;;;;;;;4.18;3.00;;;13.00;99.90;;;;;;5052622;28;20035;-87
2021/10/02 06:14:08;;;;;;;4.47;2.47;;;13.10;99.90;;;;;;5053189;28;20033;-88
2021/10/02 06:16:38;;;;;;;2.80;2.50;;;13.00;99.90;;;;;;5054286;28;20028;-88
2021/10/02 06:19:04;;;;;;;5.38;2.30;;;13.00;99.90;;;;;;5072503;28;20376;-87
2021/10/02 06:21:30;;;;;;;3.75;2.15;;;13.00;99.90;;;;;;5054614;28;20030;-87
2021/10/02 06:23:58;;;;;;;3.60;2.38;;;13.00;99.90;;;;;;5057161;28;20065;-86
2021/10/02 06:26:25;;;;;;;3.85;2.53;;;13.00;99.90;;;;;;5071375;28;20031;-86
2021/10/02 06:28:53;;;;;;;2.28;2.05;;;13.00;99.90;;;;;;5071945;28;20024;-87
2021/10/02 06:31:19;;;;;;;4.88;2.80;;;13.10;99.90;;;;;;5069447;28;20445;-88
2021/10/02 06:33:44;;;;;;;4.95;3.33;;;13.00;99.90;;;;;;5053931;28;21010;-87
2021/10/02 06:36:12;;;;;;;2.40;2.10;;;13.00;99.90;;;;;;5071816;28;20039;-87
2021/10/02 06:38:37;;;;;;;4.18;2.15;;;13.00;99.90;;;;;;5055389;28;20564;-87
2021/10/02 06:41:03;;;;;;;4.50;3.00;;;13.10;99.90;;;;;;5054133;28;20036;-87
2021/10/02 06:43:31;;;;;;;2.03;1.83;;;13.10;99.90;;;;;;5050671;28;20029;-87
2021/10/02 06:46:01;;;;;;;3.13;2.33;;;13.10;99.90;;;;;;5056331;28;20012;-88
2021/10/02 06:48:27;;;;;;;2.40;2.03;;;13.30;99.90;;;;;;5056009;28;20031;-86
2021/10/02 06:50:52;;;;;;;5.75;1.92;;;13.20;99.90;;;;;;5057174;28;20056;-88
2021/10/02 06:53:18;;;;;;;2.33;1.98;;;13.20;99.90;;;;;;5052746;28;20028;-87
2021/10/02 06:55:44;;;;;;;4.47;1.90;;;13.20;99.90;;;;;;5050361;28;20035;-89
2021/10/02 06:58:10;;;;;;;3.33;2.05;;;13.20;99.90;;;;;;5062534;28;20154;-87
2021/10/02 07:00:36;;;;;;;3.85;2.75;;;13.20;99.90;;;;;;5069357;28;20027;-88
2021/10/02 07:03:02;;;;;;;2.30;2.10;;;13.20;99.90;;;;;;5058788;28;20028;-88
2021/10/02 07:05:27;;;;;;;5.10;2.35;;;13.30;99.90;;;;;;5059554;28;20038;-86
2021/10/02 07:07:53;;;;;;;2.95;1.90;;;13.30;99.90;;;;;;5051274;28;20055;-87
2021/10/02 07:10:20;;;;;;;2.80;2.05;;;13.40;99.90;;;;;;5028332;28;20489;-86
2021/10/02 07:12:48;;;;;;;2.45;1.70;;;13.40;99.90;;;;;;5067486;28;20047;-87
2021/10/02 07:15:13;;;;;;;8.88;1.75;;;13.40;99.90;;;;;;5054210;28;20308;-86
2021/10/02 07:17:39;;;;;;;1.67;1.52;;;13.50;99.90;;;;;;5069364;28;20032;-87
2021/10/02 07:20:05;;;;;;;2.15;1.85;;;13.50;99.90;;;;;;5069257;28;20031;-87
2021/10/02 07:22:34;;;;;;;1.85;1.58;;;13.50;99.90;;;;;;5056773;28;20032;-86
2021/10/02 07:25:02;;;;;;;2.45;1.38;;;13.60;99.90;;;;;;5056282;28;20030;-87
2021/10/02 07:27:27;;;;;;;6.00;1.50;;;13.70;99.90;;;;;;5022860;28;20028;-87
2021/10/02 07:29:56;;;;;;;1.92;1.80;;;13.70;99.90;;;;;;5061430;28;20033;-87
2021/10/02 07:32:23;;;;;;;2.25;1.65;;;13.80;99.90;;;;;;5056879;28;20096;-87
2021/10/02 07:34:50;;;;;;;3.25;1.40;;;13.80;99.90;;;;;;5055374;28;20097;-86
2021/10/02 07:37:15;;;;;;;3.85;1.60;;;13.90;99.90;;;;;;5071828;28;20444;-87
2021/10/02 07:39:41;;;;;;;2.25;1.58;;;13.90;99.90;;;;;;5058090;28;20054;-87
2021/10/02 07:42:06;;;;;;;1.65;1.13;;;14.00;99.90;;;;;;5068642;28;20027;-87
2021/10/02 07:44:32;;;;;;;3.28;1.65;;;14.00;99.90;;;;;;5059458;28;20802;-86
2021/10/02 07:46:58;;;;;;;2.22;1.70;;;14.10;99.90;;;;;;5059782;28;20047;-87
2021/10/02 07:49:24;;;;;;;2.33;1.38;;;14.10;99.90;;;;;;5056066;28;20032;-87
2021/10/02 07:51:50;;;;;;;2.65;1.20;;;14.20;99.90;;;;;;5073232;28;20578;-87
2021/10/02 07:54:17;;;;;;;1.92;1.38;;;14.20;99.80;;;;;;5055948;28;20032;-87
2021/10/02 07:56:43;;;;;;;1.90;1.25;;;14.30;99.90;;;;;;5070719;28;20036;-87
2021/10/02 07:59:08;;;;;;;1.70;1.13;;;14.30;99.90;;;;;;5056429;28;20705;-87
2021/10/02 08:01:34;;;;;;;3.67;1.40;;;14.40;99.80;;;;;;5070922;28;20118;-87
2021/10/02 08:04:06;;;;;;;4.32;1.00;;;14.30;99.90;;;;;;5057940;28;20438;-86
2021/10/02 08:06:34;;;;;;;1.70;1.20;;;14.50;99.90;;;;;;5043771;28;20037;-86
2021/10/02 08:09:00;;;;;;;3.67;1.80;;;14.60;99.80;;;;;;5090014;28;20126;-85
2021/10/02 08:11:26;;;;;;;3.70;1.83;;;14.70;99.90;;;;;;5064095;28;20107;-86
2021/10/02 08:13:53;;;;;;;3.10;1.70;;;14.80;99.90;;;;;;5061903;28;20574;-86
2021/10/02 08:16:18;;;;;;;1.17;1.08;;;14.80;99.70;;;;;;5079972;28;20032;-86
2021/10/02 08:18:44;;;;;;;1.65;1.30;;;14.90;99.80;;;;;;5061645;28;20035;-85
2021/10/02 08:21:10;;;;;;;1.30;1.20;;;14.90;99.80;;;;;;5076555;28;20024;-86
2021/10/02 08:23:36;;;;;;;2.17;1.55;;;14.90;99.90;;;;;;5059714;28;20040;-86
2021/10/02 08:26:02;;;;;;;1.30;1.20;;;15.00;99.60;;;;;;5092592;28;20058;-86
2021/10/02 08:28:29;;;;;;;1.30;1.20;;;15.10;99.90;;;;;;5054014;28;20062;-87
2021/10/02 08:30:55;;;;;;;1.52;1.20;;;15.10;99.70;;;;;;5057389;28;20024;-86
2021/10/02 08:33:21;;;;;;;1.15;1.05;;;15.10;99.80;;;;;;5059785;28;20050;-86
2021/10/02 08:35:46;;;;;;;1.95;1.02;;;15.20;99.40;;;;;;5058133;28;20043;-86
2021/10/02 08:38:15;;;;;;;2.25;2.05;;;15.30;99.30;;;;;;5058368;28;20036;-87
2021/10/02 08:40:41;;;;;;;2.25;1.02;;;15.50;99.20;;;;;;5070411;28;20032;-86
2021/10/02 08:43:11;;;;;;;2.67;1.15;;;15.50;99.20;;;;;;5059238;28;20498;-86
2021/10/02 08:45:39;;;;;;;2.25;1.00;;;15.50;99.70;;;;;;5039839;28;20641;-85
2021/10/02 08:48:17;;;;;;;2.30;1.08;;;15.70;99.30;;;;;;5049458;28;20471;-86
2021/10/02 08:50:43;;;;;;;2.92;1.23;;;15.80;99.80;;;;;;5076317;28;20031;-85
2021/10/02 08:53:09;;;;;;;1.73;0.82;;;15.80;99.00;;;;;;5057089;28;20731;-85
2021/10/02 08:55:34;;;;;;;1.00;0.80;;;16.00;99.20;;;;;;5062884;28;20335;-85
2021/10/02 08:58:08;;;;;;;2.03;0.98;;;16.10;99.20;;;;;;5079099;28;20055;-85
2021/10/02 09:00:34;;;;;;;2.38;1.77;;;16.20;99.10;;;;;;5068604;28;20036;-84
2021/10/02 09:02:59;;;;;;;1.90;0.82;;;16.40;98.80;;;;;;5062978;28;20114;-85
2021/10/02 09:05:25;;;;;;;1.27;1.10;;;16.40;98.80;;;;;;5058184;28;20024;-84
2021/10/02 09:07:56;;;;;;;2.63;1.00;;;16.40;98.70;;;;;;5077361;28;20032;-85
2021/10/02 09:10:25;;;;;;;2.88;1.20;;;16.50;98.60;;;;;;5056578;28;20021;-84
2021/10/02 09:12:53;;;;;;;3.45;1.00;;;16.60;98.40;;;;;;5059380;28;20134;-85
2021/10/02 09:15:20;;;;;;;1.38;1.02;;;16.70;98.80;;;;;;5046923;28;20114;-85
2021/10/02 09:17:46;;;;;;;1.23;0.95;;;16.80;97.90;;;;;;5031604;28;20050;-85
2021/10/02 09:20:13;;;;;;;0.80;0.77;;;16.80;98.70;;;;;;5047429;28;20031;-85
2021/10/02 09:22:38;;;;;;;1.02;0.93;;;16.80;97.60;;;;;;5050297;28;20028;-85
2021/10/02 09:25:09;;;;;;;1.35;1.10;;;17.00;97.50;;;;;;5059352;28;20043;-85
2021/10/02 09:27:34;;;;;;;0.70;0.70;;;17.30;98.60;;;;;;5031477;28;20029;-85
2021/10/02 09:30:07;;;;;;;1.65;1.10;;;17.30;97.60;;;;;;5068233;28;20034;-86
2021/10/02 09:32:38;;;;;;;1.00;0.90;;;17.50;97.70;;;;;;5066261;28;20036;-86
2021/10/02 09:35:18;;;;;;;2.20;1.17;;;17.60;97.70;;;;;;5070640;28;20031;-86
2021/10/02 09:37:53;;;;;;;1.30;1.00;;;17.50;97.80;;;;;;5056583;28;20145;-86
2021/10/02 09:40:20;;;;;;;2.35;1.85;;;17.70;97.80;;;;;;5067204;28;20030;-85
2021/10/02 09:42:49;;;;;;;6.15;2.35;;;17.90;97.00;;;;;;5055298;28;20028;-86
2021/10/02 09:45:17;;;;;;;4.50;1.35;;;18.00;97.70;;;;;;5057327;28;20563;-86
2021/10/02 09:47:50;;;;;;;1.20;1.05;;;17.90;96.70;;;;;;5048651;28;20083;-86
2021/10/02 09:50:25;;;;;;;1.63;1.00;;;18.40;96.70;;;;;;5042385;28;20455;-86
2021/10/02 09:52:56;;;;;;;1.20;1.10;;;18.50;96.80;;;;;;5029838;28;20119;-86
2021/10/02 09:55:30;;;;;;;4.53;1.20;;;18.70;96.40;;;;;;5044950;28;20241;-85
2021/10/02 09:58:00;;;;;;;2.15;1.35;;;18.60;96.60;;;;;;5032267;28;20033;-84
2021/10/02 10:00:43;;;;;;;2.95;1.17;;;18.30;95.70;;;;;;5027543;28;20043;-84
2021/10/02 10:03:10;;;;;;;3.42;1.30;;;18.60;96.20;;;;;;5030796;28;20028;-87
2021/10/02 10:05:47;;;;;;;1.30;1.20;;;18.80;97.30;;;;;;5058962;28;20394;-85
2021/10/02 10:08:22;;;;;;;3.08;1.35;;;19.10;95.80;;;;;;5036249;28;20033;-85
2021/10/02 10:10:47;;;;;;;1.75;1.13;;;19.00;95.80;;;;;;5049815;28;20331;-85
2021/10/02 10:13:15;;;;;;;0.90;0.80;;;19.00;95.80;;;;;;5058972;28;20521;-85
2021/10/02 10:15:47;;;;;;;3.10;1.35;;;19.00;95.30;;;;;;5076466;28;20028;-85
2021/10/02 10:18:38;;;;;;;2.30;1.00;;;19.10;95.80;;;;;;5047542;28;20062;-85
2021/10/02 10:21:13;;;;;;;1.70;1.00;;;19.10;95.00;;;;;;5024642;28;20258;-84
2021/10/02 10:23:41;;;;;;;1.02;0.90;;;19.50;97.90;;;;;;5035713;28;20027;-84
2021/10/02 10:26:08;;;;;;;2.60;1.05;;;19.40;94.80;;;;;;5060185;28;20054;-85
2021/10/02 10:28:36;;;;;;;1.45;1.05;;;19.70;97.60;;;;;;5061252;28;20048;-85
2021/10/02 10:31:14;;;;;;;3.03;1.33;;;19.50;94.80;;;;;;5070677;28;20421;-85
2021/10/02 10:33:49;;;;;;;1.20;1.10;;;19.50;95.10;;;;;;5033053;28;20048;-85
2021/10/02 10:36:20;;;;;;;2.40;1.07;;;19.90;97.30;;;;;;5031053;28;20028;-85
2021/10/02 10:38:46;;;;;;;3.05;1.05;;;19.90;96.30;;;;;;5038509;28;20749;-85
2021/10/02 10:41:20;;;;;;;1.35;1.25;;;19.80;95.70;;;;;;5039339;28;20038;-85
2021/10/02 10:43:48;;;;;;;1.08;0.98;;;19.60;94.50;;;;;;5031663;28;20111;-85
2021/10/02 10:46:16;;;;;;;4.10;1.00;;;19.70;94.80;;;;;;5033944;28;20040;-85
2021/10/02 10:48:42;;;;;;;1.17;1.05;;;19.90;94.30;;;;;;5055592;28;20043;-85
2021/10/02 10:51:21;;;;;;;1.23;1.10;;;19.70;96.10;;;;;;5021463;28;20107;-86
2021/10/02 10:54:15;;;;;;;2.25;1.15;;;20.10;97.40;;;;;;5022343;28;20551;-86
2021/10/02 10:56:43;;;;;;;2.25;1.55;;;20.20;94.70;;;;;;5065792;28;20031;-85
2021/10/02 10:59:09;;;;;;;2.00;1.02;;;20.30;96.50;;;;;;5068267;28;20399;-86
2021/10/02 11:01:39;;;;;;;2.33;1.05;;;20.00;94.60;;;;;;5033654;28;20028;-86
2021/10/02 11:04:05;;;;;;;1.90;1.20;;;19.90;95.10;;;;;;5047420;28;20429;-85
2021/10/02 11:06:52;;;;;;;3.13;1.10;;;19.80;94.60;;;;;;4360221;28;10000571;-85
2021/10/02 11:09:34;;;;;;;2.50;1.05;;;19.40;94.00;;;;;;5070095;28;20024;-85
2021/10/02 11:12:00;;;;;;;2.25;1.13;;;20.00;96.30;;;;;;5054721;28;20146;-86
2021/10/02 11:15:15;;;;;;;;;;;;;;;;;;;;;
2021/10/02 11:17:44;;;;;;;2.55;1.50;;;19.80;93.30;;;;;;5029962;28;20078;-86
2021/10/02 11:20:59;;;;;;;1.80;1.02;;;20.00;93.70;;;;;;5031851;28;20048;-85
2021/10/02 11:23:50;;;;;;;1.63;0.90;;;19.90;93.50;;;;;;5019944;28;20028;-87
2021/10/02 11:26:35;;;;;;;1.40;1.00;;;20.20;93.30;;;;;;5063678;28;20066;-87
2021/10/02 11:32:34;;;;;;;2.67;0.98;;;20.20;93.70;;;;;;5052212;28;20075;-87
2021/10/02 11:35:29;;;;;;;1.08;0.98;;;20.30;92.80;;;;;;5031101;28;20039;-86
2021/10/02 11:38:10;;;;;;;1.35;0.93;;;20.20;92.90;;;;;;5018933;28;20036;-86
2021/10/02 11:40:42;;;;;;;1.35;0.90;;;20.30;92.50;;;;;;5010374;28;20096;-85
2021/10/02 11:44:08;;;;;;;1.67;0.70;;;20.30;93.40;;;;;;5033513;28;20035;-86
2021/10/02 11:47:07;;;;;;;0.73;0.68;;;20.50;92.00;;;;;;4988834;28;20560;-85
2021/10/02 11:52:46;;;;;;;1.63;0.73;;;20.50;91.90;;;;;;5008319;28;20046;-85
2021/10/02 11:55:48;;;;;;;2.88;0.60;;;20.40;92.70;;;;;;5056338;28;20035;-85
2021/10/02 11:58:26;;;;;;;3.38;0.80;;;20.40;91.80;;;;;;5028348;28;20037;-85
2021/10/02 12:00:58;;;;;;;2.38;0.77;;;20.10;92.30;;;;;;5053641;28;20503;-85
2021/10/02 12:03:44;;;;;;;1.20;0.77;;;20.20;92.70;;;;;;5012931;28;20036;-85
2021/10/02 12:06:43;;;;;;;0.98;0.70;;;20.30;92.50;;;;;;5039992;28;20151;-86
2021/10/02 12:09:29;;;;;;;0.98;0.65;;;20.70;92.50;;;;;;5007398;28;20368;-86
2021/10/02 12:15:30;;;;;;;;;;;21.00;92.30;;;;;;5026985;28;20033;-88
2021/10/02 12:17:56;;;;;;;2.40;0.70;;;21.00;91.90;;;;;;5082346;28;19908;-87
2021/10/02 12:20:36;;;;;;;1.38;0.77;;;21.00;92.30;;;;;;5057854;28;20536;-86
2021/10/02 12:23:05;;;;;;;1.85;0.70;;;21.40;92.70;;;;;;5057826;28;22258;-86
2021/10/02 12:25:31;;;;;;;1.60;0.77;;;21.50;91.50;;;;;;5054967;28;20028;-86
2021/10/02 12:27:57;;;;;;;1.52;0.77;;;21.40;91.80;;;;;;5089701;28;20028;-87
2021/10/02 12:30:22;;;;;;;0.50;0.50;;;21.40;92.50;;;;;;5059481;28;20023;-87
2021/10/02 12:33:06;;;;;;;0.70;0.47;;;21.30;91.10;;;;;;5061766;28;20097;-87
2021/10/02 12:35:32;;;;;;;1.50;0.60;;;21.10;91.80;;;;;;5079884;28;20035;-88
2021/10/02 12:37:57;;;;;;;0.73;0.65;;;21.20;91.40;;;;;;5071379;28;20390;-87
2021/10/02 12:40:24;;;;;;;1.90;0.60;;;21.10;91.10;;;;;;5057092;28;20074;-87
2021/10/02 12:42:54;;;;;;;1.42;0.70;;;20.90;91.30;;;;;;5072821;28;20031;-88
2021/10/02 12:45:23;;;;;;;0.82;0.70;;;20.90;91.10;;;;;;5061874;28;20054;-88
2021/10/02 12:47:59;;;;;;;1.60;0.73;;;20.80;91.50;;;;;;5055623;28;20036;-88
2021/10/02 12:50:27;;;;;;;1.80;0.80;;;21.20;92.30;;;;;;5051417;28;20036;-87
2021/10/02 12:52:53;;;;;;;3.38;0.73;;;21.40;91.20;;;;;;5075406;28;20035;-87
2021/10/02 12:55:19;;;;;;;0.63;0.60;;;21.10;90.50;;;;;;5056061;28;20533;-87
2021/10/02 12:57:45;;;;;;;2.58;0.60;;;20.90;91.00;;;;;;5060040;28;20035;-88
2021/10/02 13:00:17;;;;;;;0.90;0.80;;;20.90;90.80;;;;;;5072162;28;20037;-88
2021/10/02 13:02:46;;;;;;;2.35;0.68;;;20.90;90.60;;;;;;5090978;28;20039;-87
2021/10/02 13:05:13;;;;;;;0.77;0.50;;;20.80;90.60;;;;;;5073004;28;20032;-88
2021/10/02 13:07:45;;;;;;;0.57;0.50;;;21.00;91.00;;;;;;5058768;28;20382;-88
2021/10/02 13:10:13;;;;;;;1.13;0.60;;;21.00;90.30;;;;;;5058896;28;20043;-87
2021/10/02 13:12:46;;;;;;;1.08;0.50;;;21.10;90.30;;;;;;5057723;28;20031;-88
2021/10/02 13:15:25;;;;;;;1.58;0.70;;;21.10;89.90;;;;;;5078444;28;20058;-88
2021/10/02 13:18:07;;;;;;;1.33;0.60;;;21.30;90.30;;;;;;5089198;28;20508;-88
2021/10/02 13:20:40;;;;;;;0.75;0.65;;;20.90;90.10;;;;;;5057031;28;20324;-88
2021/10/02 13:23:19;;;;;;;0.55;0.55;;;21.20;90.50;;;;;;5071104;28;20501;-88
2021/10/02 13:25:46;;;;;;;0.90;0.50;;;21.30;90.40;;;;;;5057721;28;20122;-85
2021/10/02 13:28:31;;;;;;;0.73;0.70;;;20.90;89.40;;;;;;5077060;28;20063;-89
2021/10/02 13:31:08;;;;;;;2.63;0.70;;;20.90;90.30;;;;;;5048327;28;20040;-88
2021/10/02 13:33:38;;;;;;;2.67;0.70;;;20.80;90.10;;;;;;5058999;28;20036;-87
2021/10/02 13:36:04;;;;;;;0.90;0.60;;;20.90;89.00;;;;;;5070619;28;20093;-88
2021/10/02 13:38:37;;;;;;;2.83;0.75;;;20.70;90.00;;;;;;5065082;28;20483;-87
2021/10/02 13:41:09;;;;;;;2.45;1.15;;;20.70;90.40;;;;;;5071541;28;20031;-87
2021/10/02 13:43:52;;;;;;;2.90;1.00;;;20.70;90.40;;;;;;5071595;28;20028;-88
2021/10/02 13:46:28;;;;;;;2.25;0.70;;;20.50;90.10;;;;;;5071006;28;20047;-87
2021/10/02 13:48:54;;;;;;;0.93;0.80;;;20.70;89.60;;;;;;5076342;28;20067;-88
2021/10/02 13:51:20;;;;;;;1.95;0.65;;;20.70;90.20;;;;;;5058568;28;20027;-88
2021/10/02 13:53:47;;;;;;;2.22;0.98;;;20.50;89.00;;;;;;5058644;28;20027;-86
2021/10/02 13:56:25;;;;;;;0.95;0.70;;;20.40;89.30;;;;;;5076249;28;20683;-88
2021/10/02 13:58:50;;;;;;;0.93;0.70;;;20.20;89.00;;;;;;5096970;28;20028;-88
2021/10/02 14:01:16;;;;;;;1.38;0.80;;;20.30;89.60;;;;;;5059621;28;20030;-86
2021/10/02 14:03:41;;;;;;;1.48;1.10;;;20.20;89.20;;;;;;5056797;28;20368;-88